createdAt,value
2019-05-11T00:00:57.000Z,85.64
2019-05-11T00:01:57.000Z,85.69
2019-05-11T00:02:57.000Z,86.16
2019-05-11T00:03:57.000Z,86.65
2019-05-11T00:04:57.000Z,86.43
2019-05-11T00:05:57.000Z,86.34
2019-05-11T00:06:57.000Z,86.43
2019-05-11T00:07:57.000Z,86.52
2019-05-11T00:08:57.000Z,86.64
2019-05-11T00:09:57.000Z,86.63
2019-05-11T00:10:57.000Z,86.56
2019-05-11T00:11:57.000Z,86.64
2019-05-11T00:12:57.000Z,86.61
2019-05-11T00:13:57.000Z,86.58
2019-05-11T00:14:57.000Z,86.30
2019-05-11T00:15:57.000Z,86.76
2019-05-11T00:16:57.000Z,86.85
2019-05-11T00:17:57.000Z,87.72
2019-05-11T00:18:57.000Z,88.11
2019-05-11T00:19:57.000Z,88.21
2019-05-11T00:20:57.000Z,88.07
2019-05-11T00:21:57.000Z,87.98
2019-05-11T00:22:57.000Z,88.50
2019-05-11T00:23:57.000Z,88.86
2019-05-11T00:24:57.000Z,88.58
2019-05-11T00:25:57.000Z,88.74
2019-05-11T00:26:57.000Z,88.15
2019-05-11T00:27:57.000Z,89.06
2019-05-11T00:28:59.000Z,88.63
2019-05-11T00:29:57.000Z,88.75
2019-05-11T00:30:57.000Z,88.67
2019-05-11T00:31:57.000Z,88.45
2019-05-11T00:32:57.000Z,88.58
2019-05-11T00:33:57.000Z,88.96
2019-05-11T00:34:57.000Z,89.05
2019-05-11T00:35:57.000Z,88.92
2019-05-11T00:36:57.000Z,89.21
2019-05-11T00:37:57.000Z,89.57
2019-05-11T00:38:57.000Z,89.07
2019-05-11T00:39:57.000Z,89.13
2019-05-11T00:40:57.000Z,88.82
2019-05-11T00:41:57.000Z,88.46
2019-05-11T00:42:57.000Z,89.41
2019-05-11T00:43:57.000Z,88.85
2019-05-11T00:44:57.000Z,89.00
2019-05-11T00:45:57.000Z,89.48
2019-05-11T00:46:57.000Z,88.66
2019-05-11T00:47:57.000Z,89.84
2019-05-11T00:48:57.000Z,89.46
2019-05-11T00:49:57.000Z,89.14
2019-05-11T00:50:57.000Z,89.13
2019-05-11T00:51:57.000Z,88.84
2019-05-11T00:52:57.000Z,88.88
2019-05-11T00:53:57.000Z,89.76
2019-05-11T00:54:57.000Z,89.59
2019-05-11T00:55:57.000Z,88.86
2019-05-11T00:56:57.000Z,89.49
2019-05-11T00:57:57.000Z,88.88
2019-05-11T00:58:57.000Z,89.39
2019-05-11T00:59:57.000Z,89.45
2019-05-11T01:00:57.000Z,89.52
2019-05-11T01:01:57.000Z,89.78
2019-05-11T01:02:57.000Z,89.71
2019-05-11T01:03:57.000Z,89.83
2019-05-11T01:04:57.000Z,90.42
2019-05-11T01:05:57.000Z,89.96
2019-05-11T01:06:57.000Z,90.03
2019-05-11T01:07:57.000Z,89.75
2019-05-11T01:08:57.000Z,90.20
2019-05-11T01:09:57.000Z,89.73
2019-05-11T01:10:57.000Z,89.59
2019-05-11T01:11:57.000Z,90.20
2019-05-11T01:12:57.000Z,90.60
2019-05-11T01:13:57.000Z,90.62
2019-05-11T01:14:57.000Z,90.88
2019-05-11T01:15:57.000Z,90.33
2019-05-11T01:16:57.000Z,89.88
2019-05-11T01:17:57.000Z,90.42
2019-05-11T01:18:57.000Z,89.72
2019-05-11T01:19:57.000Z,89.98
2019-05-11T01:20:57.000Z,90.16
2019-05-11T01:21:57.000Z,90.95
2019-05-11T01:22:57.000Z,90.72
2019-05-11T01:23:57.000Z,90.49
2019-05-11T01:24:57.000Z,91.51
2019-05-11T01:25:57.000Z,91.24
2019-05-11T01:26:57.000Z,91.11
2019-05-11T01:27:57.000Z,91.05
2019-05-11T01:28:57.000Z,90.75
2019-05-11T01:29:57.000Z,91.22
2019-05-11T01:30:57.000Z,91.05
2019-05-11T01:31:57.000Z,90.99
2019-05-11T01:32:57.000Z,90.95
2019-05-11T01:33:57.000Z,90.63
2019-05-11T01:34:57.000Z,91.14
2019-05-11T01:35:57.000Z,91.13
2019-05-11T01:36:57.000Z,90.99
2019-05-11T01:37:57.000Z,91.62
2019-05-11T01:38:57.000Z,91.62
2019-05-11T01:39:57.000Z,90.88
2019-05-11T01:40:57.000Z,91.42
2019-05-11T01:41:57.000Z,91.02
2019-05-11T01:42:57.000Z,90.74
2019-05-11T01:43:57.000Z,91.20
2019-05-11T01:44:57.000Z,91.02
2019-05-11T01:45:57.000Z,91.44
2019-05-11T01:46:57.000Z,91.54
2019-05-11T01:47:57.000Z,91.28
2019-05-11T01:48:57.000Z,91.48
2019-05-11T01:49:57.000Z,91.48
2019-05-11T01:50:57.000Z,91.52
2019-05-11T01:51:57.000Z,91.39
2019-05-11T01:52:57.000Z,91.84
2019-05-11T01:53:57.000Z,91.55
2019-05-11T01:54:57.000Z,91.70
2019-05-11T01:55:57.000Z,91.53
2019-05-11T01:56:57.000Z,91.45
2019-05-11T01:57:57.000Z,91.55
2019-05-11T01:58:57.000Z,91.58
2019-05-11T01:59:57.000Z,91.65
2019-05-11T02:00:57.000Z,91.48
2019-05-11T02:01:57.000Z,91.71
2019-05-11T02:02:57.000Z,91.72
2019-05-11T02:03:57.000Z,91.88
2019-05-11T02:04:57.000Z,91.70
2019-05-11T02:05:57.000Z,91.68
2019-05-11T02:06:57.000Z,91.74
2019-05-11T02:07:57.000Z,91.71
2019-05-11T02:08:57.000Z,91.25
2019-05-11T02:09:57.000Z,91.53
2019-05-11T02:10:57.000Z,91.60
2019-05-11T02:11:57.000Z,91.25
2019-05-11T02:12:57.000Z,91.49
2019-05-11T02:13:57.000Z,91.51
2019-05-11T02:14:57.000Z,91.28
2019-05-11T02:15:58.000Z,91.46
2019-05-11T02:16:57.000Z,91.53
2019-05-11T02:17:57.000Z,91.63
2019-05-11T02:18:57.000Z,91.37
2019-05-11T02:19:57.000Z,91.34
2019-05-11T02:20:57.000Z,91.56
2019-05-11T02:21:57.000Z,91.41
2019-05-11T02:22:57.000Z,91.19
2019-05-11T02:23:57.000Z,91.55
2019-05-11T02:24:57.000Z,91.64
2019-05-11T02:25:57.000Z,91.65
2019-05-11T02:26:57.000Z,91.57
2019-05-11T02:27:57.000Z,91.25
2019-05-11T02:28:57.000Z,91.62
2019-05-11T02:29:57.000Z,91.45
2019-05-11T02:30:57.000Z,92.10
2019-05-11T02:31:57.000Z,92.24
2019-05-11T02:32:57.000Z,91.88
2019-05-11T02:33:57.000Z,91.93
2019-05-11T02:34:57.000Z,91.96
2019-05-11T02:35:57.000Z,91.60
2019-05-11T02:36:57.000Z,92.00
2019-05-11T02:37:57.000Z,92.05
2019-05-11T02:38:57.000Z,92.25
2019-05-11T02:39:57.000Z,92.02
2019-05-11T02:40:57.000Z,92.17
2019-05-11T02:41:57.000Z,92.40
2019-05-11T02:42:57.000Z,92.24
2019-05-11T02:43:57.000Z,92.43
2019-05-11T02:44:57.000Z,92.41
2019-05-11T02:45:57.000Z,92.91
2019-05-11T02:46:57.000Z,92.67
2019-05-11T02:47:57.000Z,93.00
2019-05-11T02:48:57.000Z,93.00
2019-05-11T02:49:57.000Z,93.08
2019-05-11T02:50:57.000Z,93.27
2019-05-11T02:51:57.000Z,93.16
2019-05-11T02:52:57.000Z,93.02
2019-05-11T02:53:57.000Z,93.21
2019-05-11T02:54:57.000Z,93.62
2019-05-11T02:55:57.000Z,93.54
2019-05-11T02:56:57.000Z,93.60
2019-05-11T02:57:56.000Z,93.25
2019-05-11T02:58:57.000Z,93.26
2019-05-11T02:59:56.000Z,93.54
2019-05-11T03:00:56.000Z,93.25
2019-05-11T03:01:56.000Z,93.50
2019-05-11T03:02:56.000Z,93.83
2019-05-11T03:03:56.000Z,93.74
2019-05-11T03:04:56.000Z,93.58
2019-05-11T03:05:56.000Z,93.10
2019-05-11T03:06:56.000Z,93.36
2019-05-11T03:07:56.000Z,93.26
2019-05-11T03:08:56.000Z,93.81
2019-05-11T03:09:56.000Z,93.54
2019-05-11T03:10:56.000Z,93.48
2019-05-11T03:11:56.000Z,93.42
2019-05-11T03:12:56.000Z,93.50
2019-05-11T03:13:56.000Z,93.42
2019-05-11T03:14:56.000Z,93.57
2019-05-11T03:15:56.000Z,93.18
2019-05-11T03:16:56.000Z,93.59
2019-05-11T03:17:56.000Z,93.42
2019-05-11T03:18:56.000Z,93.52
2019-05-11T03:19:56.000Z,93.51
2019-05-11T03:20:57.000Z,93.41
2019-05-11T03:21:56.000Z,93.46
2019-05-11T03:22:56.000Z,93.42
2019-05-11T03:23:56.000Z,93.40
2019-05-11T03:24:56.000Z,93.22
2019-05-11T03:25:56.000Z,93.46
2019-05-11T03:26:56.000Z,93.34
2019-05-11T03:27:56.000Z,93.49
2019-05-11T03:28:57.000Z,93.21
2019-05-11T03:29:57.000Z,93.69
2019-05-11T03:30:57.000Z,93.61
2019-05-11T03:31:57.000Z,93.77
2019-05-11T03:32:57.000Z,93.47
2019-05-11T03:33:57.000Z,93.38
2019-05-11T03:34:57.000Z,93.61
2019-05-11T03:35:57.000Z,93.52
2019-05-11T03:36:57.000Z,93.19
2019-05-11T03:37:57.000Z,93.70
2019-05-11T03:38:57.000Z,93.30
2019-05-11T03:39:57.000Z,93.50
2019-05-11T03:40:57.000Z,93.69
2019-05-11T03:41:57.000Z,93.56
2019-05-11T03:42:57.000Z,93.71
2019-05-11T03:43:57.000Z,93.75
2019-05-11T03:44:57.000Z,93.78
2019-05-11T03:45:57.000Z,93.60
2019-05-11T03:46:57.000Z,93.63
2019-05-11T03:47:57.000Z,93.97
2019-05-11T03:48:57.000Z,93.62
2019-05-11T03:49:57.000Z,94.07
2019-05-11T03:50:57.000Z,93.92
2019-05-11T03:51:57.000Z,93.96
2019-05-11T03:52:57.000Z,93.84
2019-05-11T03:53:57.000Z,93.86
2019-05-11T03:54:57.000Z,94.24
2019-05-11T03:55:57.000Z,94.14
2019-05-11T03:56:57.000Z,94.02
2019-05-11T03:57:57.000Z,94.09
2019-05-11T03:58:57.000Z,94.11
2019-05-11T03:59:57.000Z,94.23
2019-05-11T04:00:57.000Z,94.28
2019-05-11T04:01:57.000Z,94.27
2019-05-11T04:02:57.000Z,94.07
2019-05-11T04:03:57.000Z,94.29
2019-05-11T04:04:57.000Z,93.93
2019-05-11T04:05:57.000Z,94.12
2019-05-11T04:06:57.000Z,93.89
2019-05-11T04:07:57.000Z,94.10
2019-05-11T04:08:57.000Z,94.25
2019-05-11T04:09:57.000Z,94.34
2019-05-11T04:10:57.000Z,94.53
2019-05-11T04:11:57.000Z,94.47
2019-05-11T04:12:57.000Z,94.55
2019-05-11T04:13:57.000Z,94.31
2019-05-11T04:14:57.000Z,94.25
2019-05-11T04:15:57.000Z,94.19
2019-05-11T04:16:57.000Z,94.20
2019-05-11T04:17:57.000Z,94.22
2019-05-11T04:18:57.000Z,94.57
2019-05-11T04:19:57.000Z,94.53
2019-05-11T04:20:57.000Z,94.44
2019-05-11T04:21:57.000Z,94.14
2019-05-11T04:22:57.000Z,94.44
2019-05-11T04:23:57.000Z,94.50
2019-05-11T04:24:57.000Z,94.45
2019-05-11T04:25:57.000Z,94.43
2019-05-11T04:26:57.000Z,94.46
2019-05-11T04:27:57.000Z,94.71
2019-05-11T04:28:57.000Z,94.65
2019-05-11T04:29:57.000Z,94.88
2019-05-11T04:30:57.000Z,94.60
2019-05-11T04:31:57.000Z,94.98
2019-05-11T04:32:57.000Z,94.97
2019-05-11T04:33:57.000Z,95.32
2019-05-11T04:34:57.000Z,94.92
2019-05-11T04:35:57.000Z,95.16
2019-05-11T04:36:57.000Z,95.78
2019-05-11T04:37:57.000Z,95.62
2019-05-11T04:38:57.000Z,95.21
2019-05-11T04:39:57.000Z,95.13
2019-05-11T04:40:57.000Z,95.27
2019-05-11T04:41:57.000Z,95.50
2019-05-11T04:42:57.000Z,95.76
2019-05-11T04:43:57.000Z,95.62
2019-05-11T04:44:57.000Z,95.39
2019-05-11T04:45:57.000Z,95.26
2019-05-11T04:46:57.000Z,95.30
2019-05-11T04:47:57.000Z,94.95
2019-05-11T04:48:57.000Z,95.19
2019-05-11T04:49:57.000Z,95.37
2019-05-11T04:50:57.000Z,95.34
2019-05-11T04:51:57.000Z,95.42
2019-05-11T04:52:57.000Z,95.35
2019-05-11T04:53:57.000Z,94.88
2019-05-11T04:54:57.000Z,94.49
2019-05-11T04:55:57.000Z,94.99
2019-05-11T04:56:57.000Z,95.33
2019-05-11T04:57:57.000Z,95.52
2019-05-11T04:58:57.000Z,95.70
2019-05-11T04:59:57.000Z,95.59
2019-05-11T05:00:57.000Z,95.60
2019-05-11T05:01:57.000Z,95.63
2019-05-11T05:02:57.000Z,95.76
2019-05-11T05:03:57.000Z,95.47
2019-05-11T05:04:57.000Z,95.24
2019-05-11T05:05:57.000Z,95.59
2019-05-11T05:06:57.000Z,95.97
2019-05-11T05:07:57.000Z,95.67
2019-05-11T05:08:57.000Z,95.43
2019-05-11T05:09:57.000Z,95.75
2019-05-11T05:10:57.000Z,95.73
2019-05-11T05:11:57.000Z,95.90
2019-05-11T05:12:57.000Z,95.56
2019-05-11T05:13:57.000Z,95.42
2019-05-11T05:14:57.000Z,95.20
2019-05-11T05:15:57.000Z,95.61
2019-05-11T05:16:57.000Z,95.79
2019-05-11T05:17:57.000Z,95.44
2019-05-11T05:18:57.000Z,95.51
2019-05-11T05:19:57.000Z,95.64
2019-05-11T05:20:57.000Z,95.61
2019-05-11T05:21:57.000Z,95.49
2019-05-11T05:22:57.000Z,95.46
2019-05-11T05:23:57.000Z,95.66
2019-05-11T05:24:57.000Z,95.60
2019-05-11T05:25:57.000Z,95.62
2019-05-11T05:26:57.000Z,95.62
2019-05-11T05:27:57.000Z,95.53
2019-05-11T05:28:57.000Z,95.61
2019-05-11T05:29:57.000Z,96.05
2019-05-11T05:30:57.000Z,96.29
2019-05-11T05:31:56.000Z,96.21
2019-05-11T05:32:56.000Z,95.82
2019-05-11T05:33:56.000Z,95.54
2019-05-11T05:34:56.000Z,95.96
2019-05-11T05:35:56.000Z,96.00
2019-05-11T05:36:56.000Z,96.20
2019-05-11T05:37:56.000Z,96.27
2019-05-11T05:38:56.000Z,96.02
2019-05-11T05:39:56.000Z,95.91
2019-05-11T05:40:56.000Z,96.11
2019-05-11T05:41:56.000Z,96.03
2019-05-11T05:42:56.000Z,95.85
2019-05-11T05:43:56.000Z,96.06
2019-05-11T05:44:56.000Z,95.80
2019-05-11T05:45:56.000Z,95.99
2019-05-11T05:46:56.000Z,95.98
2019-05-11T05:47:56.000Z,96.12
2019-05-11T05:48:56.000Z,96.08
2019-05-11T05:49:56.000Z,96.02
2019-05-11T05:50:56.000Z,95.86
2019-05-11T05:51:57.000Z,95.89
2019-05-11T05:52:56.000Z,95.77
2019-05-11T05:53:56.000Z,96.02
2019-05-11T05:54:56.000Z,96.05
2019-05-11T05:55:56.000Z,96.27
2019-05-11T05:56:56.000Z,95.74
2019-05-11T05:57:56.000Z,95.87
2019-05-11T05:58:56.000Z,95.98
2019-05-11T05:59:56.000Z,95.80
2019-05-11T06:00:56.000Z,95.94
2019-05-11T06:01:56.000Z,95.63
2019-05-11T06:02:57.000Z,96.01
2019-05-11T06:03:57.000Z,96.08
2019-05-11T06:04:57.000Z,95.70
2019-05-11T06:05:57.000Z,95.63
2019-05-11T06:06:57.000Z,95.69
2019-05-11T06:07:57.000Z,95.58
2019-05-11T06:08:57.000Z,95.35
2019-05-11T06:09:57.000Z,95.27
2019-05-11T06:10:57.000Z,95.50
2019-05-11T06:11:57.000Z,95.56
2019-05-11T06:12:57.000Z,95.35
2019-05-11T06:13:57.000Z,95.29
2019-05-11T06:14:57.000Z,95.20
2019-05-11T06:15:57.000Z,94.95
2019-05-11T06:16:57.000Z,95.17
2019-05-11T06:17:57.000Z,95.30
2019-05-11T06:18:57.000Z,94.95
2019-05-11T06:19:57.000Z,94.91
2019-05-11T06:20:57.000Z,95.33
2019-05-11T06:21:57.000Z,95.52
2019-05-11T06:22:57.000Z,95.57
2019-05-11T06:23:57.000Z,95.47
2019-05-11T06:24:57.000Z,95.68
2019-05-11T06:25:57.000Z,95.53
2019-05-11T06:26:57.000Z,96.18
2019-05-11T06:27:57.000Z,96.06
2019-05-11T06:28:57.000Z,95.81
2019-05-11T06:29:57.000Z,95.84
2019-05-11T06:30:57.000Z,95.36
2019-05-11T06:31:57.000Z,95.22
2019-05-11T06:32:57.000Z,94.76
2019-05-11T06:33:57.000Z,95.13
2019-05-11T06:34:57.000Z,94.74
2019-05-11T06:35:57.000Z,94.49
2019-05-11T06:36:57.000Z,94.71
2019-05-11T06:37:57.000Z,95.01
2019-05-11T06:38:57.000Z,94.96
2019-05-11T06:39:57.000Z,95.31
2019-05-11T06:40:57.000Z,95.22
2019-05-11T06:41:57.000Z,95.08
2019-05-11T06:42:57.000Z,95.01
2019-05-11T06:43:57.000Z,95.17
2019-05-11T06:44:57.000Z,94.95
2019-05-11T06:45:57.000Z,94.62
2019-05-11T06:46:57.000Z,94.56
2019-05-11T06:47:57.000Z,94.67
2019-05-11T06:48:57.000Z,94.79
2019-05-11T06:49:57.000Z,94.75
2019-05-11T06:50:57.000Z,94.83
2019-05-11T06:51:57.000Z,94.73
2019-05-11T06:52:57.000Z,94.49
2019-05-11T06:53:57.000Z,94.49
2019-05-11T06:54:57.000Z,94.52
2019-05-11T06:55:57.000Z,94.84
2019-05-11T06:56:57.000Z,95.03
2019-05-11T06:57:57.000Z,94.76
2019-05-11T06:58:57.000Z,95.03
2019-05-11T06:59:57.000Z,95.26
2019-05-11T07:00:57.000Z,94.93
2019-05-11T07:01:57.000Z,95.35
2019-05-11T07:02:57.000Z,95.80
2019-05-11T07:03:57.000Z,95.07
2019-05-11T07:04:57.000Z,94.70
2019-05-11T07:05:57.000Z,95.57
2019-05-11T07:06:57.000Z,94.84
2019-05-11T07:07:57.000Z,94.80
2019-05-11T07:08:57.000Z,95.11
2019-05-11T07:09:57.000Z,94.44
2019-05-11T07:10:57.000Z,94.03
2019-05-11T07:11:57.000Z,93.28
2019-05-11T07:12:57.000Z,94.14
2019-05-11T07:13:57.000Z,94.43
2019-05-11T07:14:57.000Z,93.41
2019-05-11T07:15:57.000Z,92.97
2019-05-11T07:16:57.000Z,92.98
2019-05-11T07:17:57.000Z,91.26
2019-05-11T07:18:57.000Z,90.03
2019-05-11T07:19:57.000Z,90.38
2019-05-11T07:20:57.000Z,89.51
2019-05-11T07:21:57.000Z,89.27
2019-05-11T07:22:57.000Z,89.13
2019-05-11T07:23:57.000Z,88.53
2019-05-11T07:24:57.000Z,88.01
2019-05-11T07:25:57.000Z,88.61
2019-05-11T07:26:57.000Z,87.87
2019-05-11T07:27:57.000Z,87.14
2019-05-11T07:28:57.000Z,88.15
2019-05-11T07:29:57.000Z,88.80
2019-05-11T07:30:57.000Z,88.77
2019-05-11T07:31:57.000Z,88.47
2019-05-11T07:32:57.000Z,87.80
2019-05-11T07:33:57.000Z,87.57
2019-05-11T07:34:57.000Z,87.99
2019-05-11T07:35:57.000Z,88.23
2019-05-11T07:36:57.000Z,88.64
2019-05-11T07:37:57.000Z,88.06
2019-05-11T07:38:57.000Z,86.46
2019-05-11T07:39:57.000Z,86.33
2019-05-11T07:40:57.000Z,87.11
2019-05-11T07:41:57.000Z,87.10
2019-05-11T07:42:57.000Z,86.16
2019-05-11T07:43:57.000Z,86.89
2019-05-11T07:44:57.000Z,86.06
2019-05-11T07:45:57.000Z,85.87
2019-05-11T07:46:57.000Z,85.90
2019-05-11T07:47:57.000Z,85.14
2019-05-11T07:48:57.000Z,85.43
2019-05-11T07:49:57.000Z,85.95
2019-05-11T07:50:57.000Z,85.22
2019-05-11T07:51:57.000Z,85.56
2019-05-11T07:52:57.000Z,85.45
2019-05-11T07:53:57.000Z,85.82
2019-05-11T07:54:57.000Z,85.00
2019-05-11T07:55:57.000Z,85.14
2019-05-11T07:56:57.000Z,85.32
2019-05-11T07:57:57.000Z,85.52
2019-05-11T07:58:57.000Z,85.67
2019-05-11T07:59:57.000Z,86.01
2019-05-11T08:00:57.000Z,85.99
2019-05-11T08:01:57.000Z,84.80
2019-05-11T08:02:57.000Z,84.64
2019-05-11T08:03:57.000Z,84.73
2019-05-11T08:04:57.000Z,84.42
2019-05-11T08:05:57.000Z,83.55
2019-05-11T08:06:57.000Z,83.13
2019-05-11T08:07:57.000Z,82.67
2019-05-11T08:08:57.000Z,83.26
2019-05-11T08:09:57.000Z,83.54
2019-05-11T08:10:57.000Z,84.12
2019-05-11T08:11:57.000Z,83.44
2019-05-11T08:12:57.000Z,83.51
2019-05-11T08:13:57.000Z,83.69
2019-05-11T08:14:57.000Z,84.04
2019-05-11T08:15:57.000Z,83.19
2019-05-11T08:16:57.000Z,83.82
2019-05-11T08:17:57.000Z,84.27
2019-05-11T08:18:57.000Z,82.49
2019-05-11T08:19:57.000Z,82.40
2019-05-11T08:20:57.000Z,82.45
2019-05-11T08:21:57.000Z,82.81
2019-05-11T08:22:57.000Z,81.41
2019-05-11T08:23:57.000Z,80.62
2019-05-11T08:24:57.000Z,81.30
2019-05-11T08:25:57.000Z,80.89
2019-05-11T08:26:57.000Z,80.68
2019-05-11T08:27:57.000Z,79.68
2019-05-11T08:28:57.000Z,79.55
2019-05-11T08:29:57.000Z,80.19
2019-05-11T08:30:57.000Z,79.88
2019-05-11T08:31:57.000Z,79.21
2019-05-11T08:32:57.000Z,78.70
2019-05-11T08:33:57.000Z,77.13
2019-05-11T08:34:57.000Z,78.24
2019-05-11T08:35:57.000Z,78.12
2019-05-11T08:36:57.000Z,77.33
2019-05-11T08:37:57.000Z,76.33
2019-05-11T08:38:57.000Z,76.71
2019-05-11T08:39:57.000Z,76.62
2019-05-11T08:40:57.000Z,75.02
2019-05-11T08:41:57.000Z,74.10
2019-05-11T08:42:57.000Z,74.46
2019-05-11T08:43:57.000Z,73.49
2019-05-11T08:44:57.000Z,72.96
2019-05-11T08:45:57.000Z,73.07
2019-05-11T08:46:57.000Z,73.22
2019-05-11T08:47:57.000Z,73.33
2019-05-11T08:48:57.000Z,72.74
2019-05-11T08:49:57.000Z,71.75
2019-05-11T08:50:57.000Z,72.23
2019-05-11T08:51:57.000Z,73.08
2019-05-11T08:52:57.000Z,73.09
2019-05-11T08:53:57.000Z,72.93
2019-05-11T08:54:57.000Z,72.99
2019-05-11T08:55:57.000Z,73.61
2019-05-11T08:56:57.000Z,74.27
2019-05-11T08:57:57.000Z,74.63
2019-05-11T08:58:57.000Z,73.61
2019-05-11T08:59:57.000Z,71.52
2019-05-11T09:00:57.000Z,71.15
2019-05-11T09:01:57.000Z,71.23
2019-05-11T09:02:57.000Z,72.20
2019-05-11T09:03:57.000Z,72.14
2019-05-11T09:04:57.000Z,72.91
2019-05-11T09:05:57.000Z,72.64
2019-05-11T09:06:57.000Z,72.99
2019-05-11T09:07:57.000Z,72.64
2019-05-11T09:08:57.000Z,72.09
2019-05-11T09:09:57.000Z,71.72
2019-05-11T09:10:57.000Z,72.63
2019-05-11T09:11:57.000Z,72.53
2019-05-11T09:12:57.000Z,72.18
2019-05-11T09:13:57.000Z,71.87
2019-05-11T09:14:57.000Z,72.85
2019-05-11T09:15:57.000Z,73.56
2019-05-11T09:16:57.000Z,73.14
2019-05-11T09:17:57.000Z,73.53
2019-05-11T09:18:57.000Z,70.38
2019-05-11T09:19:57.000Z,69.46
2019-05-11T09:20:57.000Z,69.13
2019-05-11T09:21:57.000Z,68.23
2019-05-11T09:22:57.000Z,68.59
2019-05-11T09:23:57.000Z,68.81
2019-05-11T09:24:57.000Z,68.47
2019-05-11T09:25:57.000Z,68.63
2019-05-11T09:26:57.000Z,69.48
2019-05-11T09:27:57.000Z,69.63
2019-05-11T09:28:57.000Z,70.59
2019-05-11T09:29:57.000Z,71.23
2019-05-11T09:30:57.000Z,69.20
2019-05-11T09:31:57.000Z,69.94
2019-05-11T09:32:57.000Z,69.52
2019-05-11T09:33:57.000Z,67.82
2019-05-11T09:34:56.000Z,67.30
2019-05-11T09:35:56.000Z,68.07
2019-05-11T09:36:56.000Z,67.35
2019-05-11T09:37:56.000Z,67.52
2019-05-11T09:38:56.000Z,68.32
2019-05-11T09:39:56.000Z,68.52
2019-05-11T09:40:56.000Z,67.19
2019-05-11T09:41:56.000Z,67.78
2019-05-11T09:42:56.000Z,66.55
2019-05-11T09:43:56.000Z,66.87
2019-05-11T09:44:56.000Z,67.43
2019-05-11T09:45:56.000Z,67.77
2019-05-11T09:46:56.000Z,66.86
2019-05-11T09:47:56.000Z,67.22
2019-05-11T09:48:56.000Z,66.46
2019-05-11T09:49:56.000Z,65.85
2019-05-11T09:50:56.000Z,65.17
2019-05-11T09:51:56.000Z,65.78
2019-05-11T09:52:56.000Z,65.29
2019-05-11T09:53:56.000Z,65.48
2019-05-11T09:54:56.000Z,65.91
2019-05-11T09:55:56.000Z,66.26
2019-05-11T09:56:56.000Z,66.30
2019-05-11T09:57:56.000Z,67.34
2019-05-11T09:58:56.000Z,67.41
2019-05-11T09:59:56.000Z,71.14
2019-05-11T10:00:56.000Z,72.88
2019-05-11T10:01:56.000Z,74.60
2019-05-11T10:02:56.000Z,74.34
2019-05-11T10:03:56.000Z,75.75
2019-05-11T10:04:56.000Z,76.32
2019-05-11T10:05:56.000Z,78.05
2019-05-11T10:06:56.000Z,77.67
2019-05-11T10:07:56.000Z,78.41
2019-05-11T10:08:56.000Z,79.59
2019-05-11T10:09:56.000Z,79.72
2019-05-11T10:10:56.000Z,79.25
2019-05-11T10:11:56.000Z,78.91
2019-05-11T10:12:56.000Z,79.37
2019-05-11T10:13:56.000Z,79.79
2019-05-11T10:14:56.000Z,79.39
2019-05-11T10:15:56.000Z,80.34
2019-05-11T10:16:56.000Z,80.70
2019-05-11T10:17:56.000Z,80.62
2019-05-11T10:18:56.000Z,80.05
2019-05-11T10:19:56.000Z,78.29
2019-05-11T10:20:56.000Z,78.85
2019-05-11T10:21:56.000Z,77.15
2019-05-11T10:22:56.000Z,76.75
2019-05-11T10:23:56.000Z,76.31
2019-05-11T10:24:56.000Z,76.16
2019-05-11T10:25:56.000Z,76.11
2019-05-11T10:26:56.000Z,76.11
2019-05-11T10:27:56.000Z,74.78
2019-05-11T10:28:56.000Z,75.57
2019-05-11T10:29:56.000Z,74.21
2019-05-11T10:30:56.000Z,74.57
2019-05-11T10:31:56.000Z,75.31
2019-05-11T10:32:56.000Z,73.39
2019-05-11T10:33:56.000Z,74.04
2019-05-11T10:34:56.000Z,75.46
2019-05-11T10:35:56.000Z,74.54
2019-05-11T10:36:56.000Z,72.21
2019-05-11T10:37:56.000Z,72.90
2019-05-11T10:38:56.000Z,73.99
2019-05-11T10:39:56.000Z,74.40
2019-05-11T10:40:56.000Z,74.30
2019-05-11T10:41:56.000Z,71.91
2019-05-11T10:42:56.000Z,71.00
2019-05-11T10:43:56.000Z,72.01
2019-05-11T10:44:56.000Z,72.18
2019-05-11T10:45:56.000Z,70.28
2019-05-11T10:46:56.000Z,69.05
2019-05-11T10:47:56.000Z,68.65
2019-05-11T10:48:56.000Z,68.57
2019-05-11T10:49:56.000Z,67.87
2019-05-11T10:50:56.000Z,67.23
2019-05-11T10:51:56.000Z,68.59
2019-05-11T10:52:56.000Z,69.51
2019-05-11T10:53:56.000Z,69.58
2019-05-11T10:54:56.000Z,69.96
2019-05-11T10:55:56.000Z,69.26
2019-05-11T10:56:56.000Z,69.64
2019-05-11T10:57:56.000Z,70.19
2019-05-11T10:58:56.000Z,70.26
2019-05-11T10:59:56.000Z,69.07
2019-05-11T11:00:56.000Z,68.82
2019-05-11T11:01:56.000Z,66.95
2019-05-11T11:02:56.000Z,67.43
2019-05-11T11:03:56.000Z,67.93
2019-05-11T11:04:56.000Z,66.69
2019-05-11T11:05:56.000Z,65.90
2019-05-11T11:06:56.000Z,66.34
2019-05-11T11:07:56.000Z,64.52
2019-05-11T11:08:56.000Z,64.28
2019-05-11T11:09:56.000Z,64.99
2019-05-11T11:10:56.000Z,65.81
2019-05-11T11:11:56.000Z,65.14
2019-05-11T11:12:56.000Z,64.40
2019-05-11T11:13:56.000Z,64.86
2019-05-11T11:14:56.000Z,65.02
2019-05-11T11:15:56.000Z,65.73
2019-05-11T11:16:56.000Z,65.37
2019-05-11T11:17:56.000Z,64.47
2019-05-11T11:18:56.000Z,64.10
2019-05-11T11:19:56.000Z,64.07
2019-05-11T11:20:56.000Z,64.64
2019-05-11T11:21:56.000Z,63.87
2019-05-11T11:22:56.000Z,63.50
2019-05-11T11:23:56.000Z,62.34
2019-05-11T11:24:56.000Z,62.30
2019-05-11T11:25:56.000Z,62.92
2019-05-11T11:26:56.000Z,62.90
2019-05-11T11:27:56.000Z,61.86
2019-05-11T11:28:56.000Z,62.53
2019-05-11T11:29:56.000Z,62.51
2019-05-11T11:30:56.000Z,61.92
2019-05-11T11:31:56.000Z,61.90
2019-05-11T11:32:56.000Z,60.91
2019-05-11T11:33:56.000Z,61.98
2019-05-11T11:34:56.000Z,62.22
2019-05-11T11:35:56.000Z,61.98
2019-05-11T11:36:56.000Z,62.64
2019-05-11T11:37:56.000Z,63.47
2019-05-11T11:38:56.000Z,68.91
2019-05-11T11:39:56.000Z,70.44
2019-05-11T11:40:56.000Z,70.46
2019-05-11T11:41:56.000Z,71.61
2019-05-11T11:42:56.000Z,73.29
2019-05-11T11:43:56.000Z,73.99
2019-05-11T11:44:56.000Z,74.81
2019-05-11T11:45:56.000Z,76.25
2019-05-11T11:46:56.000Z,74.93
2019-05-11T11:47:56.000Z,77.08
2019-05-11T11:48:56.000Z,80.86
2019-05-11T11:49:56.000Z,77.45
2019-05-11T11:50:56.000Z,76.33
2019-05-11T11:51:56.000Z,76.98
2019-05-11T11:52:56.000Z,76.34
2019-05-11T11:53:56.000Z,78.95
2019-05-11T11:54:56.000Z,77.14
2019-05-11T11:55:56.000Z,79.21
2019-05-11T11:56:56.000Z,78.24
2019-05-11T11:57:57.000Z,77.16
2019-05-11T11:58:56.000Z,76.51
2019-05-11T11:59:56.000Z,76.77
2019-05-11T12:00:56.000Z,76.67
2019-05-11T12:01:56.000Z,76.07
2019-05-11T12:02:56.000Z,74.98
2019-05-11T12:03:56.000Z,75.67
2019-05-11T12:04:56.000Z,74.06
2019-05-11T12:05:56.000Z,75.38
2019-05-11T12:06:56.000Z,75.59
2019-05-11T12:07:56.000Z,72.86
2019-05-11T12:08:56.000Z,71.47
2019-05-11T12:09:56.000Z,69.00
2019-05-11T12:10:56.000Z,69.51
2019-05-11T12:11:56.000Z,68.60
2019-05-11T12:12:56.000Z,68.35
2019-05-11T12:13:56.000Z,68.69
2019-05-11T12:14:56.000Z,68.23
2019-05-11T12:15:56.000Z,67.22
2019-05-11T12:16:56.000Z,67.79
2019-05-11T12:17:56.000Z,67.57
2019-05-11T12:18:56.000Z,68.48
2019-05-11T12:19:56.000Z,68.91
2019-05-11T12:20:56.000Z,66.38
2019-05-11T12:21:56.000Z,67.73
2019-05-11T12:22:56.000Z,64.55
2019-05-11T12:23:56.000Z,66.75
2019-05-11T12:24:56.000Z,67.57
2019-05-11T12:25:56.000Z,65.30
2019-05-11T12:26:56.000Z,63.74
2019-05-11T12:27:56.000Z,64.27
2019-05-11T12:28:56.000Z,62.87
2019-05-11T12:29:56.000Z,63.62
2019-05-11T12:30:56.000Z,64.93
2019-05-11T12:31:56.000Z,61.24
2019-05-11T12:32:56.000Z,60.79
2019-05-11T12:33:56.000Z,62.10
2019-05-11T12:34:56.000Z,61.42
2019-05-11T12:35:56.000Z,62.71
2019-05-11T12:36:56.000Z,63.31
2019-05-11T12:37:56.000Z,65.45
2019-05-11T12:38:56.000Z,65.75
2019-05-11T12:39:57.000Z,68.35
2019-05-11T12:40:56.000Z,68.80
2019-05-11T12:41:56.000Z,69.66
2019-05-11T12:42:56.000Z,71.04
2019-05-11T12:43:56.000Z,69.94
2019-05-11T12:44:56.000Z,71.01
2019-05-11T12:45:56.000Z,73.02
2019-05-11T12:46:56.000Z,72.04
2019-05-11T12:47:56.000Z,72.24
2019-05-11T12:48:56.000Z,73.26
2019-05-11T12:49:56.000Z,75.58
2019-05-11T12:50:56.000Z,74.15
2019-05-11T12:51:56.000Z,75.91
2019-05-11T12:52:56.000Z,76.66